sensor_id;sensor_type;location;lat;lon;timestamp;P1;durP1;ratioP1;P2;durP2;ratioP2
57325;SDS011;43161;50.950;18.224;2024-03-07T00:02:16;42.00;;;18.00;;
57325;SDS011;43161;50.950;18.224;2024-03-07T00:04:43;37.10;;;16.80;;
57325;SDS011;43161;50.950;18.224;2024-03-07T00:07:09;38.00;;;16.60;;
57325;SDS011;43161;50.950;18.224;2024-03-07T00:09:35;40.20;;;17.20;;
57325;SDS011;43161;50.950;18.224;2024-03-07T00:12:03;36.50;;;16.40;;
57325;SDS011;43161;50.950;18.224;2024-03-07T00:14:31;38.30;;;17.00;;
57325;SDS011;43161;50.950;18.224;2024-03-07T00:16:57;35.50;;;15.90;;
57325;SDS011;43161;50.950;18.224;2024-03-07T00:19:24;37.40;;;17.20;;
57325;SDS011;43161;50.950;18.224;2024-03-07T00:22:01;40.00;;;16.90;;
57325;SDS011;43161;50.950;18.224;2024-03-07T00:24:26;38.00;;;17.10;;
57325;SDS011;43161;50.950;18.224;2024-03-07T00:26:54;36.60;;;15.70;;
57325;SDS011;43161;50.950;18.224;2024-03-07T00:29:22;34.50;;;16.80;;
57325;SDS011;43161;50.950;18.224;2024-03-07T00:31:49;39.00;;;16.80;;
57325;SDS011;43161;50.950;18.224;2024-03-07T00:34:14;39.20;;;17.10;;
57325;SDS011;43161;50.950;18.224;2024-03-07T00:36:44;39.00;;;18.40;;
57325;SDS011;43161;50.950;18.224;2024-03-07T00:39:09;42.10;;;20.80;;
57325;SDS011;43161;50.950;18.224;2024-03-07T00:41:39;41.10;;;20.10;;
57325;SDS011;43161;50.950;18.224;2024-03-07T00:44:06;33.20;;;15.50;;
57325;SDS011;43161;50.950;18.224;2024-03-07T00:46:34;43.90;;;19.70;;
57325;SDS011;43161;50.950;18.224;2024-03-07T00:49:01;45.00;;;22.70;;
57325;SDS011;43161;50.950;18.224;2024-03-07T00:51:27;43.90;;;19.70;;
57325;SDS011;43161;50.950;18.224;2024-03-07T00:53:53;46.10;;;20.30;;
57325;SDS011;43161;50.950;18.224;2024-03-07T00:56:19;45.00;;;21.10;;
57325;SDS011;43161;50.950;18.224;2024-03-07T00:58:47;41.70;;;20.10;;
57325;SDS011;43161;50.950;18.224;2024-03-07T01:01:13;39.40;;;18.80;;
57325;SDS011;43161;50.950;18.224;2024-03-07T01:03:41;42.40;;;18.90;;
57325;SDS011;43161;50.950;18.224;2024-03-07T01:06:07;47.90;;;23.40;;
57325;SDS011;43161;50.950;18.224;2024-03-07T01:08:35;45.00;;;22.90;;
57325;SDS011;43161;50.950;18.224;2024-03-07T01:11:05;41.60;;;20.50;;
57325;SDS011;43161;50.950;18.224;2024-03-07T01:13:35;42.60;;;21.70;;
57325;SDS011;43161;50.950;18.224;2024-03-07T01:16:02;41.10;;;18.40;;
57325;SDS011;43161;50.950;18.224;2024-03-07T01:18:27;38.90;;;19.70;;
57325;SDS011;43161;50.950;18.224;2024-03-07T01:20:53;42.30;;;19.70;;
57325;SDS011;43161;50.950;18.224;2024-03-07T01:23:20;44.70;;;20.70;;
57325;SDS011;43161;50.950;18.224;2024-03-07T01:25:45;45.80;;;20.50;;
57325;SDS011;43161;50.950;18.224;2024-03-07T01:28:11;43.70;;;20.40;;
57325;SDS011;43161;50.950;18.224;2024-03-07T01:30:39;48.20;;;21.90;;
57325;SDS011;43161;50.950;18.224;2024-03-07T01:33:04;45.20;;;22.10;;
57325;SDS011;43161;50.950;18.224;2024-03-07T01:35:30;45.00;;;21.70;;
57325;SDS011;43161;50.950;18.224;2024-03-07T01:37:55;43.40;;;22.00;;
57325;SDS011;43161;50.950;18.224;2024-03-07T01:40:22;53.70;;;26.80;;
57325;SDS011;43161;50.950;18.224;2024-03-07T01:42:49;51.90;;;25.90;;
57325;SDS011;43161;50.950;18.224;2024-03-07T01:45:15;47.40;;;22.50;;
57325;SDS011;43161;50.950;18.224;2024-03-07T01:47:43;45.70;;;19.80;;
57325;SDS011;43161;50.950;18.224;2024-03-07T01:50:09;50.40;;;23.90;;
57325;SDS011;43161;50.950;18.224;2024-03-07T01:52:35;50.70;;;22.60;;
57325;SDS011;43161;50.950;18.224;2024-03-07T01:55:04;50.00;;;22.80;;
57325;SDS011;43161;50.950;18.224;2024-03-07T01:57:30;50.20;;;22.90;;
57325;SDS011;43161;50.950;18.224;2024-03-07T01:59:56;45.90;;;19.80;;
57325;SDS011;43161;50.950;18.224;2024-03-07T02:02:22;41.40;;;19.60;;
57325;SDS011;43161;50.950;18.224;2024-03-07T02:04:47;46.80;;;19.80;;
57325;SDS011;43161;50.950;18.224;2024-03-07T02:07:13;43.90;;;19.00;;
57325;SDS011;43161;50.950;18.224;2024-03-07T02:09:39;41.80;;;17.50;;
57325;SDS011;43161;50.950;18.224;2024-03-07T02:12:04;43.80;;;18.70;;
57325;SDS011;43161;50.950;18.224;2024-03-07T02:14:30;44.00;;;18.90;;
57325;SDS011;43161;50.950;18.224;2024-03-07T02:16:56;40.50;;;18.60;;
57325;SDS011;43161;50.950;18.224;2024-03-07T02:19:21;43.40;;;18.30;;
57325;SDS011;43161;50.950;18.224;2024-03-07T02:21:47;45.40;;;19.60;;
57325;SDS011;43161;50.950;18.224;2024-03-07T02:24:13;46.20;;;20.00;;
57325;SDS011;43161;50.950;18.224;2024-03-07T02:26:40;47.90;;;19.90;;
57325;SDS011;43161;50.950;18.224;2024-03-07T02:29:06;48.50;;;20.40;;
57325;SDS011;43161;50.950;18.224;2024-03-07T02:31:32;48.70;;;21.90;;
57325;SDS011;43161;50.950;18.224;2024-03-07T02:34:02;49.00;;;21.90;;
57325;SDS011;43161;50.950;18.224;2024-03-07T02:36:28;47.40;;;20.30;;
57325;SDS011;43161;50.950;18.224;2024-03-07T02:38:54;49.90;;;21.30;;
57325;SDS011;43161;50.950;18.224;2024-03-07T02:41:20;46.10;;;20.60;;
57325;SDS011;43161;50.950;18.224;2024-03-07T02:43:46;46.40;;;19.30;;
57325;SDS011;43161;50.950;18.224;2024-03-07T02:46:11;47.80;;;20.30;;
57325;SDS011;43161;50.950;18.224;2024-03-07T02:48:37;44.60;;;18.60;;
57325;SDS011;43161;50.950;18.224;2024-03-07T02:51:04;44.70;;;19.70;;
57325;SDS011;43161;50.950;18.224;2024-03-07T02:53:31;47.70;;;19.30;;
57325;SDS011;43161;50.950;18.224;2024-03-07T02:55:58;45.30;;;19.40;;
57325;SDS011;43161;50.950;18.224;2024-03-07T02:58:23;41.20;;;18.60;;
57325;SDS011;43161;50.950;18.224;2024-03-07T03:03:32;47.50;;;20.60;;
57325;SDS011;43161;50.950;18.224;2024-03-07T03:05:58;45.20;;;20.10;;
57325;SDS011;43161;50.950;18.224;2024-03-07T03:08:25;50.30;;;21.10;;
57325;SDS011;43161;50.950;18.224;2024-03-07T03:10:50;44.00;;;20.10;;
57325;SDS011;43161;50.950;18.224;2024-03-07T03:13:19;43.90;;;20.10;;
57325;SDS011;43161;50.950;18.224;2024-03-07T03:15:44;45.10;;;19.00;;
57325;SDS011;43161;50.950;18.224;2024-03-07T03:18:10;44.30;;;19.40;;
57325;SDS011;43161;50.950;18.224;2024-03-07T03:20:38;42.00;;;20.00;;
57325;SDS011;43161;50.950;18.224;2024-03-07T03:23:07;43.70;;;19.70;;
57325;SDS011;43161;50.950;18.224;2024-03-07T03:25:36;44.50;;;19.50;;
57325;SDS011;43161;50.950;18.224;2024-03-07T03:28:06;45.90;;;19.60;;
57325;SDS011;43161;50.950;18.224;2024-03-07T03:30:38;40.40;;;18.90;;
57325;SDS011;43161;50.950;18.224;2024-03-07T03:33:04;46.00;;;19.10;;
57325;SDS011;43161;50.950;18.224;2024-03-07T03:35:33;48.10;;;19.10;;
57325;SDS011;43161;50.950;18.224;2024-03-07T03:37:59;43.30;;;19.00;;
57325;SDS011;43161;50.950;18.224;2024-03-07T03:40:25;44.70;;;19.20;;
57325;SDS011;43161;50.950;18.224;2024-03-07T03:42:51;46.30;;;20.80;;
57325;SDS011;43161;50.950;18.224;2024-03-07T03:45:16;40.90;;;18.80;;
57325;SDS011;43161;50.950;18.224;2024-03-07T03:47:43;44.60;;;18.30;;
57325;SDS011;43161;50.950;18.224;2024-03-07T03:50:09;41.10;;;18.30;;
57325;SDS011;43161;50.950;18.224;2024-03-07T03:52:39;40.10;;;18.40;;
57325;SDS011;43161;50.950;18.224;2024-03-07T03:55:06;42.60;;;18.50;;
57325;SDS011;43161;50.950;18.224;2024-03-07T03:57:32;43.30;;;19.10;;
57325;SDS011;43161;50.950;18.224;2024-03-07T03:59:59;43.50;;;19.40;;
57325;SDS011;43161;50.950;18.224;2024-03-07T04:02:25;42.50;;;18.30;;
57325;SDS011;43161;50.950;18.224;2024-03-07T04:04:51;39.70;;;17.20;;
57325;SDS011;43161;50.950;18.224;2024-03-07T04:07:20;41.00;;;18.30;;
57325;SDS011;43161;50.950;18.224;2024-03-07T04:09:46;42.20;;;17.80;;
57325;SDS011;43161;50.950;18.224;2024-03-07T04:12:13;37.70;;;16.40;;
57325;SDS011;43161;50.950;18.224;2024-03-07T04:14:41;37.30;;;16.20;;
57325;SDS011;43161;50.950;18.224;2024-03-07T04:17:07;38.20;;;17.40;;
57325;SDS011;43161;50.950;18.224;2024-03-07T04:19:34;37.40;;;16.50;;
57325;SDS011;43161;50.950;18.224;2024-03-07T04:22:01;36.70;;;15.30;;
57325;SDS011;43161;50.950;18.224;2024-03-07T04:24:29;35.40;;;15.60;;
57325;SDS011;43161;50.950;18.224;2024-03-07T04:27:01;33.20;;;15.30;;
57325;SDS011;43161;50.950;18.224;2024-03-07T04:29:31;34.00;;;14.90;;
57325;SDS011;43161;50.950;18.224;2024-03-07T04:31:58;34.10;;;14.70;;
57325;SDS011;43161;50.950;18.224;2024-03-07T04:34:24;38.40;;;16.20;;
57325;SDS011;43161;50.950;18.224;2024-03-07T04:36:50;33.50;;;14.80;;
57325;SDS011;43161;50.950;18.224;2024-03-07T04:39:16;35.90;;;14.50;;
57325;SDS011;43161;50.950;18.224;2024-03-07T04:41:53;35.60;;;15.50;;
57325;SDS011;43161;50.950;18.224;2024-03-07T04:44:19;32.00;;;15.20;;
57325;SDS011;43161;50.950;18.224;2024-03-07T04:46:48;35.90;;;15.30;;
57325;SDS011;43161;50.950;18.224;2024-03-07T04:49:15;37.90;;;15.30;;
57325;SDS011;43161;50.950;18.224;2024-03-07T04:51:40;37.10;;;16.00;;
57325;SDS011;43161;50.950;18.224;2024-03-07T04:54:06;37.00;;;15.30;;
57325;SDS011;43161;50.950;18.224;2024-03-07T04:56:32;34.00;;;14.80;;
57325;SDS011;43161;50.950;18.224;2024-03-07T04:58:57;37.70;;;16.50;;
57325;SDS011;43161;50.950;18.224;2024-03-07T05:01:23;34.00;;;14.50;;
57325;SDS011;43161;50.950;18.224;2024-03-07T05:03:50;36.20;;;16.00;;
57325;SDS011;43161;50.950;18.224;2024-03-07T05:06:17;38.30;;;15.60;;
57325;SDS011;43161;50.950;18.224;2024-03-07T05:08:44;37.80;;;16.00;;
57325;SDS011;43161;50.950;18.224;2024-03-07T05:11:09;38.80;;;16.90;;
57325;SDS011;43161;50.950;18.224;2024-03-07T05:13:35;35.10;;;15.20;;
57325;SDS011;43161;50.950;18.224;2024-03-07T05:16:02;35.60;;;15.40;;
57325;SDS011;43161;50.950;18.224;2024-03-07T05:18:28;37.10;;;15.20;;
57325;SDS011;43161;50.950;18.224;2024-03-07T05:20:54;38.60;;;15.30;;
57325;SDS011;43161;50.950;18.224;2024-03-07T05:23:20;33.60;;;15.40;;
57325;SDS011;43161;50.950;18.224;2024-03-07T05:25:46;37.60;;;16.00;;
57325;SDS011;43161;50.950;18.224;2024-03-07T05:28:11;36.50;;;14.90;;
57325;SDS011;43161;50.950;18.224;2024-03-07T05:30:37;38.80;;;15.80;;
57325;SDS011;43161;50.950;18.224;2024-03-07T05:33:02;37.80;;;15.40;;
57325;SDS011;43161;50.950;18.224;2024-03-07T05:35:28;33.90;;;15.20;;
57325;SDS011;43161;50.950;18.224;2024-03-07T05:37:56;32.60;;;15.60;;
57325;SDS011;43161;50.950;18.224;2024-03-07T05:40:23;33.40;;;14.20;;
57325;SDS011;43161;50.950;18.224;2024-03-07T05:42:48;36.60;;;15.70;;
57325;SDS011;43161;50.950;18.224;2024-03-07T05:45:14;35.20;;;14.70;;
57325;SDS011;43161;50.950;18.224;2024-03-07T05:47:43;36.10;;;15.20;;
57325;SDS011;43161;50.950;18.224;2024-03-07T05:50:08;38.00;;;17.40;;
57325;SDS011;43161;50.950;18.224;2024-03-07T05:52:34;36.50;;;15.10;;
57325;SDS011;43161;50.950;18.224;2024-03-07T05:55:00;35.70;;;15.40;;
57325;SDS011;43161;50.950;18.224;2024-03-07T05:57:25;38.40;;;15.80;;
57325;SDS011;43161;50.950;18.224;2024-03-07T05:59:51;37.70;;;15.10;;
57325;SDS011;43161;50.950;18.224;2024-03-07T06:02:17;40.10;;;16.20;;
57325;SDS011;43161;50.950;18.224;2024-03-07T06:04:44;35.30;;;14.80;;
57325;SDS011;43161;50.950;18.224;2024-03-07T06:07:11;36.80;;;15.80;;
57325;SDS011;43161;50.950;18.224;2024-03-07T06:09:37;36.10;;;16.30;;
57325;SDS011;43161;50.950;18.224;2024-03-07T06:12:03;35.00;;;15.60;;
57325;SDS011;43161;50.950;18.224;2024-03-07T06:14:29;35.20;;;14.70;;
57325;SDS011;43161;50.950;18.224;2024-03-07T06:16:55;35.00;;;15.60;;
57325;SDS011;43161;50.950;18.224;2024-03-07T06:19:23;39.90;;;19.70;;
57325;SDS011;43161;50.950;18.224;2024-03-07T06:21:48;38.20;;;15.30;;
57325;SDS011;43161;50.950;18.224;2024-03-07T06:24:14;38.20;;;15.20;;
57325;SDS011;43161;50.950;18.224;2024-03-07T06:26:40;36.70;;;15.40;;
57325;SDS011;43161;50.950;18.224;2024-03-07T06:29:14;35.20;;;15.10;;
57325;SDS011;43161;50.950;18.224;2024-03-07T06:31:44;36.50;;;15.90;;
57325;SDS011;43161;50.950;18.224;2024-03-07T06:34:14;35.40;;;15.80;;
57325;SDS011;43161;50.950;18.224;2024-03-07T06:36:39;36.30;;;15.90;;
57325;SDS011;43161;50.950;18.224;2024-03-07T06:39:08;36.50;;;15.90;;
57325;SDS011;43161;50.950;18.224;2024-03-07T06:41:35;34.40;;;15.70;;
57325;SDS011;43161;50.950;18.224;2024-03-07T06:44:02;34.30;;;14.40;;
57325;SDS011;43161;50.950;18.224;2024-03-07T06:46:29;36.00;;;15.10;;
57325;SDS011;43161;50.950;18.224;2024-03-07T06:48:54;34.20;;;15.00;;
57325;SDS011;43161;50.950;18.224;2024-03-07T06:51:23;39.30;;;17.70;;
57325;SDS011;43161;50.950;18.224;2024-03-07T06:53:50;35.80;;;15.10;;
57325;SDS011;43161;50.950;18.224;2024-03-07T06:56:15;35.00;;;14.90;;
57325;SDS011;43161;50.950;18.224;2024-03-07T06:58:42;35.40;;;14.80;;
57325;SDS011;43161;50.950;18.224;2024-03-07T07:01:08;33.70;;;14.70;;
57325;SDS011;43161;50.950;18.224;2024-03-07T07:03:37;32.10;;;14.80;;
57325;SDS011;43161;50.950;18.224;2024-03-07T07:06:03;32.50;;;14.50;;
57325;SDS011;43161;50.950;18.224;2024-03-07T07:08:31;34.70;;;14.60;;
57325;SDS011;43161;50.950;18.224;2024-03-07T07:10:58;35.10;;;15.10;;
57325;SDS011;43161;50.950;18.224;2024-03-07T07:13:23;34.10;;;14.80;;
57325;SDS011;43161;50.950;18.224;2024-03-07T07:15:50;32.00;;;14.40;;
57325;SDS011;43161;50.950;18.224;2024-03-07T07:18:15;37.10;;;15.50;;
57325;SDS011;43161;50.950;18.224;2024-03-07T07:20:41;37.50;;;15.80;;
57325;SDS011;43161;50.950;18.224;2024-03-07T07:23:07;34.30;;;16.10;;
57325;SDS011;43161;50.950;18.224;2024-03-07T07:25:32;38.60;;;16.30;;
57325;SDS011;43161;50.950;18.224;2024-03-07T07:27:58;36.70;;;15.70;;
57325;SDS011;43161;50.950;18.224;2024-03-07T07:30:24;34.50;;;14.80;;
57325;SDS011;43161;50.950;18.224;2024-03-07T07:32:50;37.30;;;15.40;;
57325;SDS011;43161;50.950;18.224;2024-03-07T07:35:16;44.20;;;16.90;;
57325;SDS011;43161;50.950;18.224;2024-03-07T07:37:43;36.30;;;15.50;;
57325;SDS011;43161;50.950;18.224;2024-03-07T07:40:12;39.00;;;15.60;;
57325;SDS011;43161;50.950;18.224;2024-03-07T07:42:43;34.50;;;14.60;;
57325;SDS011;43161;50.950;18.224;2024-03-07T07:45:12;39.30;;;16.00;;
57325;SDS011;43161;50.950;18.224;2024-03-07T07:47:42;41.00;;;15.90;;
57325;SDS011;43161;50.950;18.224;2024-03-07T07:50:10;37.40;;;15.70;;
57325;SDS011;43161;50.950;18.224;2024-03-07T07:52:39;33.30;;;15.40;;
57325;SDS011;43161;50.950;18.224;2024-03-07T07:55:07;36.50;;;16.30;;
57325;SDS011;43161;50.950;18.224;2024-03-07T07:57:43;37.90;;;15.90;;
57325;SDS011;43161;50.950;18.224;2024-03-07T08:00:11;38.40;;;16.90;;
57325;SDS011;43161;50.950;18.224;2024-03-07T08:02:37;36.30;;;15.80;;
57325;SDS011;43161;50.950;18.224;2024-03-07T08:05:03;34.80;;;16.00;;
57325;SDS011;43161;50.950;18.224;2024-03-07T08:07:30;37.30;;;15.90;;
57325;SDS011;43161;50.950;18.224;2024-03-07T08:09:56;33.00;;;15.10;;
57325;SDS011;43161;50.950;18.224;2024-03-07T08:12:21;37.50;;;16.10;;
57325;SDS011;43161;50.950;18.224;2024-03-07T08:14:48;37.70;;;16.20;;
57325;SDS011;43161;50.950;18.224;2024-03-07T08:17:13;37.80;;;17.00;;
57325;SDS011;43161;50.950;18.224;2024-03-07T08:19:40;35.30;;;16.30;;
57325;SDS011;43161;50.950;18.224;2024-03-07T08:22:05;36.50;;;16.70;;
57325;SDS011;43161;50.950;18.224;2024-03-07T08:24:31;35.20;;;15.70;;
57325;SDS011;43161;50.950;18.224;2024-03-07T08:26:57;35.50;;;14.90;;
57325;SDS011;43161;50.950;18.224;2024-03-07T08:29:23;33.00;;;15.70;;
57325;SDS011;43161;50.950;18.224;2024-03-07T08:31:49;35.80;;;16.30;;
57325;SDS011;43161;50.950;18.224;2024-03-07T08:34:14;32.60;;;14.60;;
57325;SDS011;43161;50.950;18.224;2024-03-07T08:36:40;33.80;;;15.60;;
57325;SDS011;43161;50.950;18.224;2024-03-07T08:39:05;34.30;;;15.60;;
57325;SDS011;43161;50.950;18.224;2024-03-07T08:41:36;40.40;;;16.70;;
57325;SDS011;43161;50.950;18.224;2024-03-07T08:44:06;35.70;;;15.90;;
57325;SDS011;43161;50.950;18.224;2024-03-07T08:46:32;34.30;;;15.90;;
57325;SDS011;43161;50.950;18.224;2024-03-07T08:48:58;36.30;;;16.20;;
57325;SDS011;43161;50.950;18.224;2024-03-07T08:51:24;36.00;;;16.10;;
57325;SDS011;43161;50.950;18.224;2024-03-07T08:53:50;35.10;;;15.80;;
57325;SDS011;43161;50.950;18.224;2024-03-07T08:56:15;33.80;;;16.10;;
57325;SDS011;43161;50.950;18.224;2024-03-07T08:58:41;37.90;;;17.00;;
57325;SDS011;43161;50.950;18.224;2024-03-07T09:01:09;32.50;;;16.30;;
57325;SDS011;43161;50.950;18.224;2024-03-07T09:03:34;33.30;;;15.00;;
57325;SDS011;43161;50.950;18.224;2024-03-07T09:06:00;36.80;;;15.90;;
57325;SDS011;43161;50.950;18.224;2024-03-07T09:08:25;34.40;;;16.30;;
57325;SDS011;43161;50.950;18.224;2024-03-07T09:10:51;37.40;;;16.60;;
57325;SDS011;43161;50.950;18.224;2024-03-07T09:13:21;38.20;;;17.00;;
57325;SDS011;43161;50.950;18.224;2024-03-07T09:15:47;36.00;;;16.10;;
57325;SDS011;43161;50.950;18.224;2024-03-07T09:18:13;35.20;;;15.70;;
57325;SDS011;43161;50.950;18.224;2024-03-07T09:20:38;33.00;;;15.60;;
57325;SDS011;43161;50.950;18.224;2024-03-07T09:23:04;34.80;;;16.70;;
57325;SDS011;43161;50.950;18.224;2024-03-07T09:25:30;32.90;;;15.50;;
57325;SDS011;43161;50.950;18.224;2024-03-07T09:27:58;36.00;;;17.10;;
57325;SDS011;43161;50.950;18.224;2024-03-07T09:30:25;34.50;;;16.20;;
57325;SDS011;43161;50.950;18.224;2024-03-07T09:32:53;40.50;;;18.60;;
57325;SDS011;43161;50.950;18.224;2024-03-07T09:35:22;32.60;;;14.90;;
57325;SDS011;43161;50.950;18.224;2024-03-07T09:37:47;34.00;;;14.80;;
57325;SDS011;43161;50.950;18.224;2024-03-07T09:40:13;32.40;;;15.90;;
57325;SDS011;43161;50.950;18.224;2024-03-07T09:42:46;30.30;;;14.60;;
57325;SDS011;43161;50.950;18.224;2024-03-07T09:45:19;32.00;;;14.80;;
57325;SDS011;43161;50.950;18.224;2024-03-07T09:47:47;31.30;;;14.70;;
57325;SDS011;43161;50.950;18.224;2024-03-07T09:50:15;29.10;;;14.10;;
57325;SDS011;43161;50.950;18.224;2024-03-07T09:52:45;30.00;;;14.20;;
57325;SDS011;43161;50.950;18.224;2024-03-07T09:55:11;30.80;;;14.30;;
57325;SDS011;43161;50.950;18.224;2024-03-07T09:57:36;33.60;;;14.90;;
57325;SDS011;43161;50.950;18.224;2024-03-07T10:00:04;29.20;;;13.80;;
57325;SDS011;43161;50.950;18.224;2024-03-07T10:02:32;29.10;;;14.20;;
57325;SDS011;43161;50.950;18.224;2024-03-07T10:05:00;30.70;;;14.20;;
57325;SDS011;43161;50.950;18.224;2024-03-07T10:07:26;27.50;;;13.90;;
57325;SDS011;43161;50.950;18.224;2024-03-07T10:09:52;29.70;;;13.50;;
57325;SDS011;43161;50.950;18.224;2024-03-07T10:12:21;29.00;;;13.00;;
57325;SDS011;43161;50.950;18.224;2024-03-07T10:14:51;29.90;;;13.30;;
57325;SDS011;43161;50.950;18.224;2024-03-07T10:17:25;29.20;;;13.80;;
57325;SDS011;43161;50.950;18.224;2024-03-07T10:19:55;28.40;;;14.00;;
57325;SDS011;43161;50.950;18.224;2024-03-07T10:22:21;28.00;;;13.60;;
57325;SDS011;43161;50.950;18.224;2024-03-07T10:24:51;26.80;;;13.70;;
57325;SDS011;43161;50.950;18.224;2024-03-07T10:27:20;30.60;;;14.50;;
57325;SDS011;43161;50.950;18.224;2024-03-07T10:29:46;30.50;;;14.10;;
57325;SDS011;43161;50.950;18.224;2024-03-07T10:32:13;27.00;;;13.40;;
57325;SDS011;43161;50.950;18.224;2024-03-07T10:34:39;28.30;;;13.70;;
57325;SDS011;43161;50.950;18.224;2024-03-07T10:37:04;27.20;;;14.20;;
57325;SDS011;43161;50.950;18.224;2024-03-07T10:39:30;28.20;;;14.30;;
57325;SDS011;43161;50.950;18.224;2024-03-07T10:41:56;32.00;;;14.30;;
57325;SDS011;43161;50.950;18.224;2024-03-07T10:44:30;25.70;;;13.40;;
57325;SDS011;43161;50.950;18.224;2024-03-07T10:46:56;30.30;;;14.40;;
57325;SDS011;43161;50.950;18.224;2024-03-07T10:49:25;30.00;;;14.00;;
57325;SDS011;43161;50.950;18.224;2024-03-07T10:51:58;30.20;;;14.70;;
57325;SDS011;43161;50.950;18.224;2024-03-07T10:54:55;30.20;;;14.80;;
57325;SDS011;43161;50.950;18.224;2024-03-07T11:00:21;30.10;;;15.50;;
57325;SDS011;43161;50.950;18.224;2024-03-07T11:03:04;31.00;;;15.10;;
57325;SDS011;43161;50.950;18.224;2024-03-07T11:05:33;33.50;;;15.30;;
57325;SDS011;43161;50.950;18.224;2024-03-07T11:07:59;35.70;;;15.90;;
57325;SDS011;43161;50.950;18.224;2024-03-07T11:10:30;30.80;;;15.10;;
57325;SDS011;43161;50.950;18.224;2024-03-07T11:12:56;33.40;;;15.60;;
57325;SDS011;43161;50.950;18.224;2024-03-07T11:15:23;31.20;;;15.70;;
57325;SDS011;43161;50.950;18.224;2024-03-07T11:17:51;32.90;;;15.60;;
57325;SDS011;43161;50.950;18.224;2024-03-07T11:20:20;32.60;;;15.90;;
57325;SDS011;43161;50.950;18.224;2024-03-07T11:22:49;29.80;;;14.60;;
57325;SDS011;43161;50.950;18.224;2024-03-07T11:25:18;30.10;;;14.50;;
57325;SDS011;43161;50.950;18.224;2024-03-07T11:28:18;29.30;;;14.80;;
57325;SDS011;43161;50.950;18.224;2024-03-07T11:30:36;30.60;;;15.00;;
57325;SDS011;43161;50.950;18.224;2024-03-07T11:33:04;30.00;;;13.70;;
57325;SDS011;43161;50.950;18.224;2024-03-07T11:35:32;31.20;;;15.60;;
57325;SDS011;43161;50.950;18.224;2024-03-07T11:38:01;30.40;;;14.70;;
57325;SDS011;43161;50.950;18.224;2024-03-07T11:42:55;32.20;;;15.50;;
57325;SDS011;43161;50.950;18.224;2024-03-07T11:45:25;30.50;;;14.70;;
57325;SDS011;43161;50.950;18.224;2024-03-07T11:50:33;29.80;;;14.40;;
57325;SDS011;43161;50.950;18.224;2024-03-07T11:53:03;28.30;;;14.80;;
57325;SDS011;43161;50.950;18.224;2024-03-07T11:55:33;31.60;;;15.00;;
57325;SDS011;43161;50.950;18.224;2024-03-07T11:58:13;31.90;;;15.00;;
57325;SDS011;43161;50.950;18.224;2024-03-07T12:00:41;30.10;;;14.90;;
57325;SDS011;43161;50.950;18.224;2024-03-07T12:03:11;36.20;;;19.60;;
57325;SDS011;43161;50.950;18.224;2024-03-07T12:05:39;34.50;;;18.40;;
57325;SDS011;43161;50.950;18.224;2024-03-07T12:08:06;34.90;;;19.50;;
57325;SDS011;43161;50.950;18.224;2024-03-07T12:10:32;34.20;;;18.10;;
57325;SDS011;43161;50.950;18.224;2024-03-07T12:12:59;34.40;;;19.50;;
57325;SDS011;43161;50.950;18.224;2024-03-07T12:15:26;33.60;;;16.60;;
57325;SDS011;43161;50.950;18.224;2024-03-07T12:17:53;50.40;;;16.30;;
57325;SDS011;43161;50.950;18.224;2024-03-07T12:20:19;34.10;;;15.70;;
57325;SDS011;43161;50.950;18.224;2024-03-07T12:22:55;31.50;;;15.00;;
57325;SDS011;43161;50.950;18.224;2024-03-07T12:25:21;31.30;;;15.00;;
57325;SDS011;43161;50.950;18.224;2024-03-07T12:30:38;30.80;;;14.50;;
57325;SDS011;43161;50.950;18.224;2024-03-07T12:33:16;30.70;;;13.90;;
57325;SDS011;43161;50.950;18.224;2024-03-07T12:35:43;28.50;;;13.70;;
57325;SDS011;43161;50.950;18.224;2024-03-07T12:38:09;30.10;;;14.60;;
57325;SDS011;43161;50.950;18.224;2024-03-07T12:40:41;29.00;;;14.10;;
57325;SDS011;43161;50.950;18.224;2024-03-07T12:45:58;29.10;;;13.20;;
57325;SDS011;43161;50.950;18.224;2024-03-07T12:48:24;31.40;;;14.30;;
57325;SDS011;43161;50.950;18.224;2024-03-07T12:50:50;29.20;;;14.20;;
57325;SDS011;43161;50.950;18.224;2024-03-07T12:53:23;28.40;;;14.00;;
57325;SDS011;43161;50.950;18.224;2024-03-07T12:55:51;29.20;;;14.20;;
57325;SDS011;43161;50.950;18.224;2024-03-07T12:58:20;30.20;;;13.50;;
57325;SDS011;43161;50.950;18.224;2024-03-07T13:00:51;30.80;;;14.20;;
57325;SDS011;43161;50.950;18.224;2024-03-07T13:03:17;28.90;;;14.10;;
57325;SDS011;43161;50.950;18.224;2024-03-07T13:05:43;29.60;;;14.20;;
57325;SDS011;43161;50.950;18.224;2024-03-07T13:08:09;28.40;;;14.10;;
57325;SDS011;43161;50.950;18.224;2024-03-07T13:10:44;28.10;;;13.80;;
57325;SDS011;43161;50.950;18.224;2024-03-07T13:13:10;31.70;;;14.60;;
57325;SDS011;43161;50.950;18.224;2024-03-07T13:15:38;31.40;;;13.70;;
57325;SDS011;43161;50.950;18.224;2024-03-07T13:18:04;27.30;;;12.90;;
57325;SDS011;43161;50.950;18.224;2024-03-07T13:20:31;25.90;;;12.80;;
57325;SDS011;43161;50.950;18.224;2024-03-07T13:22:57;28.50;;;13.20;;
57325;SDS011;43161;50.950;18.224;2024-03-07T13:25:24;30.40;;;13.40;;
57325;SDS011;43161;50.950;18.224;2024-03-07T13:27:57;27.90;;;13.50;;
57325;SDS011;43161;50.950;18.224;2024-03-07T13:30:26;26.80;;;12.90;;
57325;SDS011;43161;50.950;18.224;2024-03-07T13:32:55;30.20;;;14.60;;
57325;SDS011;43161;50.950;18.224;2024-03-07T13:35:22;28.20;;;13.80;;
57325;SDS011;43161;50.950;18.224;2024-03-07T13:37:49;30.10;;;13.40;;
57325;SDS011;43161;50.950;18.224;2024-03-07T13:40:15;25.60;;;12.40;;
57325;SDS011;43161;50.950;18.224;2024-03-07T13:42:59;23.30;;;11.40;;
57325;SDS011;43161;50.950;18.224;2024-03-07T13:45:26;22.20;;;11.90;;
57325;SDS011;43161;50.950;18.224;2024-03-07T13:47:53;27.10;;;12.60;;
57325;SDS011;43161;50.950;18.224;2024-03-07T13:50:20;27.20;;;12.20;;
57325;SDS011;43161;50.950;18.224;2024-03-07T13:52:53;23.40;;;11.70;;
57325;SDS011;43161;50.950;18.224;2024-03-07T13:55:41;25.60;;;11.70;;
57325;SDS011;43161;50.950;18.224;2024-03-07T13:58:17;23.30;;;11.40;;
57325;SDS011;43161;50.950;18.224;2024-03-07T14:00:55;25.40;;;11.50;;
57325;SDS011;43161;50.950;18.224;2024-03-07T14:03:42;22.60;;;11.10;;
57325;SDS011;43161;50.950;18.224;2024-03-07T14:06:13;22.30;;;10.90;;
57325;SDS011;43161;50.950;18.224;2024-03-07T14:14:21;26.00;;;11.80;;
57325;SDS011;43161;50.950;18.224;2024-03-07T14:28:43;26.90;;;13.70;;
57325;SDS011;43161;50.950;18.224;2024-03-07T14:31:26;23.30;;;11.10;;
57325;SDS011;43161;50.950;18.224;2024-03-07T14:36:43;25.20;;;11.50;;
57325;SDS011;43161;50.950;18.224;2024-03-07T14:39:11;23.50;;;10.90;;
57325;SDS011;43161;50.950;18.224;2024-03-07T14:44:24;23.60;;;11.70;;
57325;SDS011;43161;50.950;18.224;2024-03-07T14:46:59;24.00;;;11.50;;
57325;SDS011;43161;50.950;18.224;2024-03-07T14:49:27;24.20;;;11.60;;
57325;SDS011;43161;50.950;18.224;2024-03-07T14:51:53;24.60;;;11.40;;